ADDS METAR Data INFO
IDs: Format: Raw Decoded Include TAF

Data at: 2057 UTC 19 Jul 2018

KMIW 192053Z AUTO 12012KT 10SM BKN017 BKN023 25/23 A2970 RMK AO2 LTG DSNT S-NW SLP050 T02500228 58034
KMIW 192043Z AUTO 14012KT 10SM SCT017 BKN022 OVC060 25/22 A2972 RMK AO2 LTG DSNT S-W T02500222
KMIW 191953Z AUTO 15012KT 10SM FEW050 SCT090 25/22 A2974 RMK AO2 LTG DSNT SW SLP065 T02500217
KMIW 191906Z AUTO 16013KT 10SM SCT015 SCT032 23/21 A2976 RMK AO2 T02330206
KMIW 191853Z AUTO 16017G23KT 10SM BKN015 OVC032 23/20 A2977 RMK AO2 SLP075 T02280200
KMIW 191844Z AUTO 14014G21KT 10SM OVC015 22/19 A2977 RMK AO2 LTG DSNT NE AND E T02170194
KMIW 191753Z AUTO 15013KT 10SM OVC012 20/18 A2980 RMK AO2 PK WND 13026/1720 LTG DSNT N SLP087 60003 T02000183 10206 20189 56023
KMIW 191739Z AUTO 15015G22KT 10SM OVC013 19/18 A2981 RMK AO2 PK WND 13026/1720 LTG DSNT N T01940178
KMIW 191653Z AUTO 13017G22KT 10SM OVC017 20/18 A2982 RMK AO2 PK WND 14027/1600 LTG DSNT N RAB34E47 SLP093 P0000 T02000183
KMIW 191553Z AUTO 13018G25KT 10SM OVC019 20/18 A2984 RMK AO2 SLP100 T02000178
KMIW 191453Z AUTO 14016G24KT 10SM FEW009 OVC023 20/19 A2987 RMK AO2 RAB13E27 SLP109 P0001 60003 T02000194 56010
KMIW 191406Z AUTO 15013G21KT 10SM OVC028 19/19 A2988 RMK AO2 LTG DSNT SE T01940194
KMIW 191353Z AUTO 15015G21KT 10SM VCTS OVC030 19/19 A2988 RMK AO2 LTG DSNT SE RAE45 TSB13E28 SLP112 P0001 T01940194
KMIW 191334Z AUTO 15013G20KT 10SM -RA OVC031 19/19 A2987 RMK AO2 LTG DSNT SE TSB13E28 P0001 T01940189
KMIW 191319Z AUTO 14010KT 10SM -TSRA OVC035 19/19 A2987 RMK AO2 LTG DSNT N TSB13 P0001 T01940189
KMIW 191303Z AUTO 14015G22KT 10SM VCTS -RA OVC037 19/18 A2987 RMK AO2 LTG DSNT E AND SE P0001 T01890183
KMIW 191253Z AUTO 14015KT 10SM -RA OVC037 19/18 A2987 RMK AO2 LTG DSNT N AND SE AND W SLP110 P0001 T01890183
KMIW 191153Z AUTO 13012KT 10SM -RA OVC044 19/19 A2990 RMK AO2 LTG DSNT E-S TSB01E16 SLP119 P0036 60140 70140 T01890189 10222 20183 58005
KMIW 191130Z AUTO 12007KT 3SM -RA BR SCT006 SCT026 OVC045 18/18 A2992 RMK AO2 LTG DSNT SE TSB01E16 P0033 T01830183
KMIW 191122Z AUTO 13009KT 2 1/2SM VCTS +RA BR SCT006 BKN026 OVC045 18/18 A2991 RMK AO2 LTG DSNT N AND SE TSB01E16 P0030 T01830183
KMIW 191107Z AUTO 12009KT 3SM -TSRA BR SCT005 BKN023 OVC055 18/18 A2991 RMK AO2 LTG DSNT N AND SE TSB01 P0016 T01830183
KMIW 191104Z AUTO 12008KT 2SM +TSRA BR SCT005 SCT023 OVC050 19/19 A2991 RMK AO2 LTG DSNT N AND SE TSB01 P0016 T01890189
KMIW 191100Z AUTO 13005KT 1 3/4SM VCTS +RA BR FEW005 SCT025 OVC050 19/19 A2992 RMK AO2 LTG DSNT N-SE P0015 T01890189
KMIW 191053Z AUTO 16009KT 8SM VCTS -RA OVC050 19/19 A2992 RMK AO2 LTG DSNT ALQDS TSE01 PRESRR SLP124 P0040 T01890189
KMIW 191015Z AUTO 13015KT 3SM -RA BR FEW007 SCT026 OVC048 19/19 A2991 RMK AO2 LTG DSNT N-SE TSE01 P0032 T01890189
KMIW 191007Z AUTO 12015G21KT 2SM +RA BR FEW007 BKN027 OVC047 19/19 A2991 RMK AO2 LTG DSNT N-SE TSE01 P0026 T01890189
KMIW 190953Z AUTO 13012KT 1 3/4SM +TSRA BR SCT007 BKN025 OVC047 19/19 A2992 RMK AO2 LTG DSNT ALQDS TSB21 SLP124 P0044 T01940194
KMIW 190938Z AUTO 13011G22KT 6SM -TSRA BR SCT008 BKN042 OVC050 19/19 A2992 RMK AO2 LTG DSNT N AND SE TSB21 P0020 T01940194
KMIW 190930Z AUTO 12015G22KT 2 1/2SM TSRA BR FEW008 OVC040 19/19 A2991 RMK AO2 VIS 1 1/2V4 LTG DSNT N AND SE AND NW TSB21 P0019 T01940194
KMIW 190921Z AUTO 13013G20KT 4SM TSRA BR SCT008 BKN036 OVC042 19/19 A2992 RMK AO2 LTG DSNT N AND SE AND NW TSB21 P0012 T01940194
KMIW 190909Z AUTO 12010KT 3SM VCTS +RA BR FEW008 OVC042 19/19 A2992 RMK AO2 LTG DSNT ALQDS P0008 T01940194
KMIW 190853Z AUTO 13009KT 7SM VCTS -RA OVC044 20/19 A2993 RMK AO2 LTG DSNT SE-SW TSB11E26 SLP127 P0019 60020 T02000194 57008
KMIW 190832Z AUTO 12011KT 4SM VCTS RA BR OVC050 19/19 A2993 RMK AO2 LTG DSNT ALQDS TSB11E26 P0016 T01940194
KMIW 190817Z AUTO 14011G17KT 10SM -TSRA BKN050 OVC065 20/19 A2994 RMK AO2 LTG DSNT ALQDS TSB11 P0009 T02000194
KMIW 190810Z AUTO 14009KT 8SM -RA BKN050 OVC065 20/19 A2994 RMK AO2 LTG DSNT ALQDS P0009 T02000194
KMIW 190753Z AUTO 15012KT 9SM VCTS -RA OVC060 21/19 A2994 RMK AO2 LTG DSNT SE-SW RAB51 SLP130 P0001 T02060194
KMIW 190739Z AUTO 16013KT 10SM VCTS OVC070 21/19 A2994 RMK AO2 LTG DSNT SE T02110194
KMIW 190653Z AUTO 15010KT 10SM SCT065 SCT080 22/20 A2994 RMK AO2 LTG DSNT SE SLP131 T02170200
KMIW 190553Z AUTO 13011KT 10SM FEW075 22/20 A2995 RMK AO2 LTG DSNT S SLP135 T02220200 10272 20222 403000167 58005
KMIW 190453Z AUTO 15010KT 10SM CLR 23/19 A2996 RMK AO2 SLP139 T02330194
KMIW 190353Z AUTO 13007KT 10SM OVC070 23/20 A2997 RMK AO2 SLP142 T02330200
KMIW 190253Z AUTO 10006KT 10SM OVC070 23/21 A2997 RMK AO2 SLP141 T02280206 53001
KMIW 190153Z AUTO 12006KT 10SM FEW075 23/21 A2997 RMK AO2 SLP141 T02280211
KMIW 190053Z AUTO 11005KT 10SM CLR 26/21 A2997 RMK AO2 SLP141 T02560211
KMIW 182353Z AUTO 11006KT 10SM CLR 27/21 A2997 RMK AO2 SLP141 T02720206 10300 20267 56016
KMIW 182253Z AUTO 13007KT 10SM FEW047 BKN060 BKN075 28/20 A2998 RMK AO2 SLP146 T02830200
KMIW 182153Z AUTO 15007KT 10SM FEW065 SCT085 28/20 A3000 RMK AO2 SLP152 T02830200
KMIW 182053Z AUTO 14006KT 10SM FEW045 SCT060 29/19 A3001 RMK AO2 SLP157 T02890189 58014
KMIW 181953Z AUTO 10007KT 10SM SCT047 BKN065 28/19 A3003 RMK AO2 SLP161 T02780194
KMIW 181853Z AUTO 12003KT 10SM FEW043 SCT060 BKN075 27/19 A3005 RMK AO2 SLP169 T02720194
KMIW 181753Z AUTO 12006KT 10SM FEW041 28/20 A3006 RMK AO2 SLP172 T02780200 10283 20183 58010
KMIW 181653Z AUTO 12004KT 10SM CLR 27/19 A3007 RMK AO2 SLP176 T02720194
KMIW 181553Z AUTO 14004KT 10SM CLR 26/21 A3008 RMK AO2 SLP179 T02610206
KMIW 181453Z AUTO 12004KT 10SM CLR 24/21 A3009 RMK AO2 SLP182 T02390211 58001
KMIW 181353Z AUTO 11007KT 10SM CLR 22/20 A3010 RMK AO2 SLP185 T02220200
KMIW 181253Z AUTO 08005KT 10SM CLR 19/18 A3010 RMK AO2 SLP186 T01940183
KMIW 181153Z AUTO 07004KT 10SM CLR 18/18 A3009 RMK AO2 SLP184 T01830178 10189 20167 55000
KMIW 181053Z AUTO 07005KT 10SM CLR 17/17 A3008 RMK AO2 SLP181 T01720172
KMIW 180953Z AUTO 09006KT 10SM CLR 18/17 A3008 RMK AO2 SLP180 T01780172